sensor_id;sensor_type;location;lat;lon;timestamp;temperature;humidity
45549;DHT22;31270;48.328;10.096;2023-04-15T00:01:15;4.60;99.90
45549;DHT22;31270;48.328;10.096;2023-04-15T00:03:44;4.60;99.90
45549;DHT22;31270;48.328;10.096;2023-04-15T00:06:14;4.60;99.90
45549;DHT22;31270;48.328;10.096;2023-04-15T00:08:39;4.60;99.90
45549;DHT22;31270;48.328;10.096;2023-04-15T00:11:05;4.60;99.90
45549;DHT22;31270;48.328;10.096;2023-04-15T00:13:31;4.60;99.90
45549;DHT22;31270;48.328;10.096;2023-04-15T00:15:58;4.60;99.90
45549;DHT22;31270;48.328;10.096;2023-04-15T00:18:24;4.60;99.90
45549;DHT22;31270;48.328;10.096;2023-04-15T00:20:50;4.60;99.90
45549;DHT22;31270;48.328;10.096;2023-04-15T00:23:16;4.60;99.90
45549;DHT22;31270;48.328;10.096;2023-04-15T00:25:42;4.60;99.90
45549;DHT22;31270;48.328;10.096;2023-04-15T00:28:08;4.60;99.90
45549;DHT22;31270;48.328;10.096;2023-04-15T00:30:34;4.60;99.90
45549;DHT22;31270;48.328;10.096;2023-04-15T00:33:00;4.50;99.90
45549;DHT22;31270;48.328;10.096;2023-04-15T00:35:26;4.50;99.90
45549;DHT22;31270;48.328;10.096;2023-04-15T00:37:52;4.40;99.90
45549;DHT22;31270;48.328;10.096;2023-04-15T00:40:20;4.40;99.90
45549;DHT22;31270;48.328;10.096;2023-04-15T00:42:46;4.40;99.90
45549;DHT22;31270;48.328;10.096;2023-04-15T00:45:12;4.40;99.90
45549;DHT22;31270;48.328;10.096;2023-04-15T00:47:39;4.30;99.90
45549;DHT22;31270;48.328;10.096;2023-04-15T00:50:06;4.30;99.90
45549;DHT22;31270;48.328;10.096;2023-04-15T00:52:32;4.30;99.90
45549;DHT22;31270;48.328;10.096;2023-04-15T00:54:59;4.30;99.90
45549;DHT22;31270;48.328;10.096;2023-04-15T00:57:25;4.30;99.90
45549;DHT22;31270;48.328;10.096;2023-04-15T00:59:54;4.30;99.90
45549;DHT22;31270;48.328;10.096;2023-04-15T01:02:20;4.40;99.90
45549;DHT22;31270;48.328;10.096;2023-04-15T01:04:46;4.40;99.90
45549;DHT22;31270;48.328;10.096;2023-04-15T01:07:13;4.40;99.90
45549;DHT22;31270;48.328;10.096;2023-04-15T01:09:39;4.50;99.90
45549;DHT22;31270;48.328;10.096;2023-04-15T01:12:05;4.50;99.90
45549;DHT22;31270;48.328;10.096;2023-04-15T01:14:32;4.40;99.90
45549;DHT22;31270;48.328;10.096;2023-04-15T01:16:58;4.40;99.90
45549;DHT22;31270;48.328;10.096;2023-04-15T01:19:24;4.40;99.90
45549;DHT22;31270;48.328;10.096;2023-04-15T01:21:50;4.40;99.90
45549;DHT22;31270;48.328;10.096;2023-04-15T01:24:18;4.30;99.90
45549;DHT22;31270;48.328;10.096;2023-04-15T01:26:44;4.20;99.90
45549;DHT22;31270;48.328;10.096;2023-04-15T01:29:10;4.20;99.90
45549;DHT22;31270;48.328;10.096;2023-04-15T01:31:35;4.10;99.90
45549;DHT22;31270;48.328;10.096;2023-04-15T01:34:01;4.20;99.90
45549;DHT22;31270;48.328;10.096;2023-04-15T01:36:27;4.20;99.90
45549;DHT22;31270;48.328;10.096;2023-04-15T01:38:53;4.20;99.90
45549;DHT22;31270;48.328;10.096;2023-04-15T01:41:26;4.10;99.90
45549;DHT22;31270;48.328;10.096;2023-04-15T01:43:52;4.10;99.90
45549;DHT22;31270;48.328;10.096;2023-04-15T01:46:18;4.10;99.90
45549;DHT22;31270;48.328;10.096;2023-04-15T01:48:44;4.10;99.90
45549;DHT22;31270;48.328;10.096;2023-04-15T01:51:10;4.10;99.90
45549;DHT22;31270;48.328;10.096;2023-04-15T01:53:36;4.00;99.90
45549;DHT22;31270;48.328;10.096;2023-04-15T01:56:02;4.00;99.90
45549;DHT22;31270;48.328;10.096;2023-04-15T01:58:27;3.90;99.90
45549;DHT22;31270;48.328;10.096;2023-04-15T02:00:53;4.00;99.90
45549;DHT22;31270;48.328;10.096;2023-04-15T02:03:18;4.00;99.90
45549;DHT22;31270;48.328;10.096;2023-04-15T02:05:44;3.90;99.90
45549;DHT22;31270;48.328;10.096;2023-04-15T02:08:20;3.90;99.90
45549;DHT22;31270;48.328;10.096;2023-04-15T02:10:46;3.80;99.90
45549;DHT22;31270;48.328;10.096;2023-04-15T02:13:12;3.80;99.90
45549;DHT22;31270;48.328;10.096;2023-04-15T02:15:48;3.80;99.90
45549;DHT22;31270;48.328;10.096;2023-04-15T02:18:15;3.80;99.90
45549;DHT22;31270;48.328;10.096;2023-04-15T02:20:41;3.70;99.90
45549;DHT22;31270;48.328;10.096;2023-04-15T02:23:08;3.70;99.90
45549;DHT22;31270;48.328;10.096;2023-04-15T02:25:36;3.70;99.90
45549;DHT22;31270;48.328;10.096;2023-04-15T02:28:06;3.70;99.90
45549;DHT22;31270;48.328;10.096;2023-04-15T02:30:32;3.60;99.90
45549;DHT22;31270;48.328;10.096;2023-04-15T02:33:00;3.60;99.90
45549;DHT22;31270;48.328;10.096;2023-04-15T02:35:35;3.60;99.90
45549;DHT22;31270;48.328;10.096;2023-04-15T02:38:03;3.50;99.90
45549;DHT22;31270;48.328;10.096;2023-04-15T02:40:30;3.50;99.90
45549;DHT22;31270;48.328;10.096;2023-04-15T02:42:56;3.40;99.90
45549;DHT22;31270;48.328;10.096;2023-04-15T02:45:22;3.40;99.90
45549;DHT22;31270;48.328;10.096;2023-04-15T02:48:01;3.40;99.90
45549;DHT22;31270;48.328;10.096;2023-04-15T02:50:31;3.40;99.90
45549;DHT22;31270;48.328;10.096;2023-04-15T02:52:57;3.30;99.90
45549;DHT22;31270;48.328;10.096;2023-04-15T02:55:25;3.30;99.90
45549;DHT22;31270;48.328;10.096;2023-04-15T02:58:01;3.20;99.90
45549;DHT22;31270;48.328;10.096;2023-04-15T03:00:27;3.20;99.90
45549;DHT22;31270;48.328;10.096;2023-04-15T03:02:58;3.10;99.90
45549;DHT22;31270;48.328;10.096;2023-04-15T03:05:24;3.10;99.90
45549;DHT22;31270;48.328;10.096;2023-04-15T03:07:53;3.20;99.90
45549;DHT22;31270;48.328;10.096;2023-04-15T03:10:20;3.10;99.90
45549;DHT22;31270;48.328;10.096;2023-04-15T03:12:46;3.20;99.90
45549;DHT22;31270;48.328;10.096;2023-04-15T03:15:12;3.10;99.90
45549;DHT22;31270;48.328;10.096;2023-04-15T03:17:38;3.10;99.90
45549;DHT22;31270;48.328;10.096;2023-04-15T03:20:05;3.00;99.90
45549;DHT22;31270;48.328;10.096;2023-04-15T03:22:31;3.10;99.90
45549;DHT22;31270;48.328;10.096;2023-04-15T03:24:57;3.10;99.90
45549;DHT22;31270;48.328;10.096;2023-04-15T03:27:23;3.10;99.90
45549;DHT22;31270;48.328;10.096;2023-04-15T03:29:50;3.10;99.90
45549;DHT22;31270;48.328;10.096;2023-04-15T03:32:16;3.00;99.90
45549;DHT22;31270;48.328;10.096;2023-04-15T03:34:42;3.10;99.90
45549;DHT22;31270;48.328;10.096;2023-04-15T03:37:26;3.00;99.90
45549;DHT22;31270;48.328;10.096;2023-04-15T03:39:52;3.20;99.90
45549;DHT22;31270;48.328;10.096;2023-04-15T03:42:18;3.00;99.90
45549;DHT22;31270;48.328;10.096;2023-04-15T03:44:44;3.00;99.90
45549;DHT22;31270;48.328;10.096;2023-04-15T03:47:10;3.00;99.90
45549;DHT22;31270;48.328;10.096;2023-04-15T03:49:36;3.10;99.90
45549;DHT22;31270;48.328;10.096;2023-04-15T03:52:02;3.10;99.90
45549;DHT22;31270;48.328;10.096;2023-04-15T03:54:27;3.10;99.90
45549;DHT22;31270;48.328;10.096;2023-04-15T03:56:53;3.10;99.90
45549;DHT22;31270;48.328;10.096;2023-04-15T03:59:18;3.10;99.90
45549;DHT22;31270;48.328;10.096;2023-04-15T04:01:44;3.00;99.90
45549;DHT22;31270;48.328;10.096;2023-04-15T04:04:10;3.00;99.90
45549;DHT22;31270;48.328;10.096;2023-04-15T04:06:36;3.00;99.90
45549;DHT22;31270;48.328;10.096;2023-04-15T04:09:01;3.00;99.90
45549;DHT22;31270;48.328;10.096;2023-04-15T04:11:27;2.90;99.90
45549;DHT22;31270;48.328;10.096;2023-04-15T04:13:53;2.90;99.90
45549;DHT22;31270;48.328;10.096;2023-04-15T04:16:18;2.90;99.90
45549;DHT22;31270;48.328;10.096;2023-04-15T04:18:44;2.80;99.90
45549;DHT22;31270;48.328;10.096;2023-04-15T04:21:10;2.70;99.90
45549;DHT22;31270;48.328;10.096;2023-04-15T04:23:36;2.70;99.90
45549;DHT22;31270;48.328;10.096;2023-04-15T04:26:02;2.70;99.90
45549;DHT22;31270;48.328;10.096;2023-04-15T04:28:27;2.70;99.90
45549;DHT22;31270;48.328;10.096;2023-04-15T04:30:53;2.60;99.90
45549;DHT22;31270;48.328;10.096;2023-04-15T04:33:19;2.60;99.90
45549;DHT22;31270;48.328;10.096;2023-04-15T04:35:44;2.60;99.90
45549;DHT22;31270;48.328;10.096;2023-04-15T04:38:10;2.50;99.90
45549;DHT22;31270;48.328;10.096;2023-04-15T04:40:36;2.50;99.90
45549;DHT22;31270;48.328;10.096;2023-04-15T04:43:01;2.60;99.90
45549;DHT22;31270;48.328;10.096;2023-04-15T04:45:27;2.50;99.90
45549;DHT22;31270;48.328;10.096;2023-04-15T04:47:53;2.50;99.90
45549;DHT22;31270;48.328;10.096;2023-04-15T04:50:18;2.50;99.90
45549;DHT22;31270;48.328;10.096;2023-04-15T04:52:44;2.50;99.90
45549;DHT22;31270;48.328;10.096;2023-04-15T04:55:09;2.60;99.90
45549;DHT22;31270;48.328;10.096;2023-04-15T04:57:35;2.60;99.90
45549;DHT22;31270;48.328;10.096;2023-04-15T05:00:01;2.60;99.90
45549;DHT22;31270;48.328;10.096;2023-04-15T05:02:29;2.60;99.90
45549;DHT22;31270;48.328;10.096;2023-04-15T05:04:55;2.60;99.90
45549;DHT22;31270;48.328;10.096;2023-04-15T05:07:21;2.60;99.90
45549;DHT22;31270;48.328;10.096;2023-04-15T05:09:46;2.60;99.90
45549;DHT22;31270;48.328;10.096;2023-04-15T05:12:12;2.60;99.90
45549;DHT22;31270;48.328;10.096;2023-04-15T05:14:41;2.60;99.90
45549;DHT22;31270;48.328;10.096;2023-04-15T05:17:07;2.60;99.90
45549;DHT22;31270;48.328;10.096;2023-04-15T05:19:33;2.60;99.90
45549;DHT22;31270;48.328;10.096;2023-04-15T05:21:59;2.70;99.90
45549;DHT22;31270;48.328;10.096;2023-04-15T05:24:25;2.70;99.90
45549;DHT22;31270;48.328;10.096;2023-04-15T05:26:50;2.70;99.90
45549;DHT22;31270;48.328;10.096;2023-04-15T05:29:16;2.80;99.90
45549;DHT22;31270;48.328;10.096;2023-04-15T05:31:42;2.80;99.90
45549;DHT22;31270;48.328;10.096;2023-04-15T05:34:07;2.90;99.90
45549;DHT22;31270;48.328;10.096;2023-04-15T05:36:33;2.90;99.90
45549;DHT22;31270;48.328;10.096;2023-04-15T05:38:59;3.00;99.90
45549;DHT22;31270;48.328;10.096;2023-04-15T05:41:25;3.10;99.90
45549;DHT22;31270;48.328;10.096;2023-04-15T05:43:50;3.10;99.90
45549;DHT22;31270;48.328;10.096;2023-04-15T05:46:16;3.20;99.90
45549;DHT22;31270;48.328;10.096;2023-04-15T05:48:42;3.30;99.90
45549;DHT22;31270;48.328;10.096;2023-04-15T05:51:08;3.40;99.90
45549;DHT22;31270;48.328;10.096;2023-04-15T05:53:34;3.50;99.90
45549;DHT22;31270;48.328;10.096;2023-04-15T05:56:00;3.50;99.90
45549;DHT22;31270;48.328;10.096;2023-04-15T05:58:26;3.60;99.90
45549;DHT22;31270;48.328;10.096;2023-04-15T06:00:52;3.60;99.90
45549;DHT22;31270;48.328;10.096;2023-04-15T06:03:18;3.60;99.90
45549;DHT22;31270;48.328;10.096;2023-04-15T06:05:43;3.60;99.90
45549;DHT22;31270;48.328;10.096;2023-04-15T06:08:09;3.60;99.90
45549;DHT22;31270;48.328;10.096;2023-04-15T06:10:36;3.60;99.90
45549;DHT22;31270;48.328;10.096;2023-04-15T06:13:02;3.70;99.90
45549;DHT22;31270;48.328;10.096;2023-04-15T06:15:31;3.70;99.90
45549;DHT22;31270;48.328;10.096;2023-04-15T06:17:57;3.80;99.90
45549;DHT22;31270;48.328;10.096;2023-04-15T06:20:22;3.80;99.90
45549;DHT22;31270;48.328;10.096;2023-04-15T06:22:48;3.80;99.90
45549;DHT22;31270;48.328;10.096;2023-04-15T06:25:14;3.80;99.90
45549;DHT22;31270;48.328;10.096;2023-04-15T06:27:40;3.80;99.90
45549;DHT22;31270;48.328;10.096;2023-04-15T06:30:06;3.80;99.90
45549;DHT22;31270;48.328;10.096;2023-04-15T06:32:32;3.80;99.90
45549;DHT22;31270;48.328;10.096;2023-04-15T06:34:58;3.90;99.90
45549;DHT22;31270;48.328;10.096;2023-04-15T06:37:23;3.90;99.90
45549;DHT22;31270;48.328;10.096;2023-04-15T06:39:49;4.00;99.90
45549;DHT22;31270;48.328;10.096;2023-04-15T06:42:14;4.10;99.90
45549;DHT22;31270;48.328;10.096;2023-04-15T06:44:40;4.20;99.90
45549;DHT22;31270;48.328;10.096;2023-04-15T06:47:07;4.40;99.90
45549;DHT22;31270;48.328;10.096;2023-04-15T06:49:33;4.50;99.90
45549;DHT22;31270;48.328;10.096;2023-04-15T06:51:59;4.70;99.90
45549;DHT22;31270;48.328;10.096;2023-04-15T06:54:25;4.80;99.90
45549;DHT22;31270;48.328;10.096;2023-04-15T06:56:51;5.10;99.90
45549;DHT22;31270;48.328;10.096;2023-04-15T06:59:17;5.40;99.90
45549;DHT22;31270;48.328;10.096;2023-04-15T07:01:43;5.70;99.90
45549;DHT22;31270;48.328;10.096;2023-04-15T07:04:09;5.90;99.90
45549;DHT22;31270;48.328;10.096;2023-04-15T07:06:35;6.20;99.90
45549;DHT22;31270;48.328;10.096;2023-04-15T07:09:01;6.40;99.90
45549;DHT22;31270;48.328;10.096;2023-04-15T07:11:27;6.70;99.90
45549;DHT22;31270;48.328;10.096;2023-04-15T07:13:53;7.00;99.90
45549;DHT22;31270;48.328;10.096;2023-04-15T07:16:19;7.10;99.90
45549;DHT22;31270;48.328;10.096;2023-04-15T07:18:45;7.30;99.90
45549;DHT22;31270;48.328;10.096;2023-04-15T07:21:11;7.60;99.90
45549;DHT22;31270;48.328;10.096;2023-04-15T07:23:37;7.90;99.90
45549;DHT22;31270;48.328;10.096;2023-04-15T07:26:03;8.00;99.90
45549;DHT22;31270;48.328;10.096;2023-04-15T07:28:28;8.20;99.90
45549;DHT22;31270;48.328;10.096;2023-04-15T07:30:55;8.60;99.90
45549;DHT22;31270;48.328;10.096;2023-04-15T07:33:24;8.70;99.90
45549;DHT22;31270;48.328;10.096;2023-04-15T07:35:49;8.70;99.90
45549;DHT22;31270;48.328;10.096;2023-04-15T07:38:15;8.80;99.90
45549;DHT22;31270;48.328;10.096;2023-04-15T07:40:41;8.80;99.90
45549;DHT22;31270;48.328;10.096;2023-04-15T07:43:07;8.80;99.90
45549;DHT22;31270;48.328;10.096;2023-04-15T07:45:33;8.90;99.90
45549;DHT22;31270;48.328;10.096;2023-04-15T07:48:00;8.90;99.90
45549;DHT22;31270;48.328;10.096;2023-04-15T07:50:26;9.10;99.90
45549;DHT22;31270;48.328;10.096;2023-04-15T07:52:51;9.10;99.90
45549;DHT22;31270;48.328;10.096;2023-04-15T07:55:19;9.00;99.90
45549;DHT22;31270;48.328;10.096;2023-04-15T07:57:48;9.00;99.90
45549;DHT22;31270;48.328;10.096;2023-04-15T08:00:14;9.10;99.90
45549;DHT22;31270;48.328;10.096;2023-04-15T08:02:40;9.20;99.90
45549;DHT22;31270;48.328;10.096;2023-04-15T08:05:08;9.20;99.90
45549;DHT22;31270;48.328;10.096;2023-04-15T08:07:33;9.40;99.90
45549;DHT22;31270;48.328;10.096;2023-04-15T08:09:59;9.70;99.90
45549;DHT22;31270;48.328;10.096;2023-04-15T08:12:25;10.10;99.90
45549;DHT22;31270;48.328;10.096;2023-04-15T08:14:51;10.50;99.90
45549;DHT22;31270;48.328;10.096;2023-04-15T08:17:17;10.80;99.90
45549;DHT22;31270;48.328;10.096;2023-04-15T08:19:42;11.00;99.90
45549;DHT22;31270;48.328;10.096;2023-04-15T08:22:09;11.20;99.90
45549;DHT22;31270;48.328;10.096;2023-04-15T08:24:36;11.30;99.90
45549;DHT22;31270;48.328;10.096;2023-04-15T08:27:03;11.20;99.90
45549;DHT22;31270;48.328;10.096;2023-04-15T08:29:31;11.60;99.90
45549;DHT22;31270;48.328;10.096;2023-04-15T08:32:01;12.00;99.90
45549;DHT22;31270;48.328;10.096;2023-04-15T08:34:27;12.10;99.90
45549;DHT22;31270;48.328;10.096;2023-04-15T08:36:53;12.00;99.90
45549;DHT22;31270;48.328;10.096;2023-04-15T08:39:18;12.00;99.90
45549;DHT22;31270;48.328;10.096;2023-04-15T08:41:52;11.90;99.90
45549;DHT22;31270;48.328;10.096;2023-04-15T08:44:22;11.90;99.90
45549;DHT22;31270;48.328;10.096;2023-04-15T08:46:48;12.20;99.90
45549;DHT22;31270;48.328;10.096;2023-04-15T08:49:14;12.20;99.90
45549;DHT22;31270;48.328;10.096;2023-04-15T08:51:42;12.20;99.90
45549;DHT22;31270;48.328;10.096;2023-04-15T08:54:08;12.60;99.90
45549;DHT22;31270;48.328;10.096;2023-04-15T08:56:35;12.90;99.90
45549;DHT22;31270;48.328;10.096;2023-04-15T08:59:01;12.90;99.90
45549;DHT22;31270;48.328;10.096;2023-04-15T09:01:28;13.00;99.90
45549;DHT22;31270;48.328;10.096;2023-04-15T09:03:53;13.10;99.90
45549;DHT22;31270;48.328;10.096;2023-04-15T09:06:21;13.20;99.90
45549;DHT22;31270;48.328;10.096;2023-04-15T09:08:48;13.30;99.90
45549;DHT22;31270;48.328;10.096;2023-04-15T09:11:14;13.30;99.90
45549;DHT22;31270;48.328;10.096;2023-04-15T09:13:42;13.30;99.90
45549;DHT22;31270;48.328;10.096;2023-04-15T09:16:08;13.40;99.90
45549;DHT22;31270;48.328;10.096;2023-04-15T09:18:36;13.40;99.90
45549;DHT22;31270;48.328;10.096;2023-04-15T09:23:31;13.90;99.90
45549;DHT22;31270;48.328;10.096;2023-04-15T09:25:58;14.20;99.90
45549;DHT22;31270;48.328;10.096;2023-04-15T09:28:25;14.40;99.90
45549;DHT22;31270;48.328;10.096;2023-04-15T09:31:00;14.40;99.90
45549;DHT22;31270;48.328;10.096;2023-04-15T09:33:28;14.80;99.90
45549;DHT22;31270;48.328;10.096;2023-04-15T09:36:00;15.30;99.90
45549;DHT22;31270;48.328;10.096;2023-04-15T09:38:26;15.60;99.90
45549;DHT22;31270;48.328;10.096;2023-04-15T09:40:52;15.60;99.90
45549;DHT22;31270;48.328;10.096;2023-04-15T09:43:17;15.50;99.90
45549;DHT22;31270;48.328;10.096;2023-04-15T09:45:48;15.20;99.90
45549;DHT22;31270;48.328;10.096;2023-04-15T09:48:24;15.40;99.90
45549;DHT22;31270;48.328;10.096;2023-04-15T09:50:57;15.80;99.90
45549;DHT22;31270;48.328;10.096;2023-04-15T09:53:24;15.60;99.90
45549;DHT22;31270;48.328;10.096;2023-04-15T09:58:23;15.50;99.90
45549;DHT22;31270;48.328;10.096;2023-04-15T10:00:51;15.70;99.90
45549;DHT22;31270;48.328;10.096;2023-04-15T10:05:54;15.70;99.90
45549;DHT22;31270;48.328;10.096;2023-04-15T10:08:22;15.80;99.90
45549;DHT22;31270;48.328;10.096;2023-04-15T10:10:50;15.60;99.90
45549;DHT22;31270;48.328;10.096;2023-04-15T10:13:22;15.60;99.90
45549;DHT22;31270;48.328;10.096;2023-04-15T10:16:13;15.20;99.90
45549;DHT22;31270;48.328;10.096;2023-04-15T10:18:43;15.10;99.90
45549;DHT22;31270;48.328;10.096;2023-04-15T10:21:09;15.10;99.90
45549;DHT22;31270;48.328;10.096;2023-04-15T10:23:35;14.90;99.90
45549;DHT22;31270;48.328;10.096;2023-04-15T10:26:03;14.80;99.90
45549;DHT22;31270;48.328;10.096;2023-04-15T10:28:28;14.60;99.90
45549;DHT22;31270;48.328;10.096;2023-04-15T10:30:55;14.50;99.90
45549;DHT22;31270;48.328;10.096;2023-04-15T10:33:23;14.10;99.90
45549;DHT22;31270;48.328;10.096;2023-04-15T10:35:50;14.00;99.90
45549;DHT22;31270;48.328;10.096;2023-04-15T10:38:40;13.90;99.90
45549;DHT22;31270;48.328;10.096;2023-04-15T10:41:14;14.00;99.90
45549;DHT22;31270;48.328;10.096;2023-04-15T10:43:51;14.00;99.90
45549;DHT22;31270;48.328;10.096;2023-04-15T10:49:16;14.30;99.90
45549;DHT22;31270;48.328;10.096;2023-04-15T10:51:56;14.30;99.90
45549;DHT22;31270;48.328;10.096;2023-04-15T10:57:06;14.60;99.90
45549;DHT22;31270;48.328;10.096;2023-04-15T10:59:38;14.70;99.90
45549;DHT22;31270;48.328;10.096;2023-04-15T11:02:39;14.40;99.90
45549;DHT22;31270;48.328;10.096;2023-04-15T11:05:05;14.50;99.90
45549;DHT22;31270;48.328;10.096;2023-04-15T11:12:39;14.80;99.90
45549;DHT22;31270;48.328;10.096;2023-04-15T11:15:24;14.70;99.90
45549;DHT22;31270;48.328;10.096;2023-04-15T11:17:58;14.80;99.90
45549;DHT22;31270;48.328;10.096;2023-04-15T11:20:24;14.60;99.90
45549;DHT22;31270;48.328;10.096;2023-04-15T11:22:54;14.60;99.90
45549;DHT22;31270;48.328;10.096;2023-04-15T11:25:31;14.70;99.90
45549;DHT22;31270;48.328;10.096;2023-04-15T11:27:58;14.50;99.90
45549;DHT22;31270;48.328;10.096;2023-04-15T11:30:26;14.20;99.90
45549;DHT22;31270;48.328;10.096;2023-04-15T11:32:54;14.20;99.90
45549;DHT22;31270;48.328;10.096;2023-04-15T11:35:20;14.20;99.90
45549;DHT22;31270;48.328;10.096;2023-04-15T11:37:48;14.00;99.90
45549;DHT22;31270;48.328;10.096;2023-04-15T11:40:14;13.90;99.30
45549;DHT22;31270;48.328;10.096;2023-04-15T11:42:45;13.90;99.90
45549;DHT22;31270;48.328;10.096;2023-04-15T11:45:13;13.80;99.90
45549;DHT22;31270;48.328;10.096;2023-04-15T11:47:40;13.70;99.90
45549;DHT22;31270;48.328;10.096;2023-04-15T11:50:19;13.60;99.90
45549;DHT22;31270;48.328;10.096;2023-04-15T11:52:55;13.70;99.90
45549;DHT22;31270;48.328;10.096;2023-04-15T11:55:22;13.80;99.90
45549;DHT22;31270;48.328;10.096;2023-04-15T12:00:37;14.20;99.90
45549;DHT22;31270;48.328;10.096;2023-04-15T12:03:20;14.30;99.90
45549;DHT22;31270;48.328;10.096;2023-04-15T12:11:32;13.10;99.90
45549;DHT22;31270;48.328;10.096;2023-04-15T12:16:43;11.90;99.90
45549;DHT22;31270;48.328;10.096;2023-04-15T12:19:12;11.30;99.90
45549;DHT22;31270;48.328;10.096;2023-04-15T12:21:40;11.10;99.90
45549;DHT22;31270;48.328;10.096;2023-04-15T12:24:09;11.40;99.90
45549;DHT22;31270;48.328;10.096;2023-04-15T12:26:51;11.40;99.90
45549;DHT22;31270;48.328;10.096;2023-04-15T12:29:18;11.50;99.90
45549;DHT22;31270;48.328;10.096;2023-04-15T12:31:52;11.70;99.90
45549;DHT22;31270;48.328;10.096;2023-04-15T12:37:02;11.90;99.90
45549;DHT22;31270;48.328;10.096;2023-04-15T12:39:29;11.90;99.90
45549;DHT22;31270;48.328;10.096;2023-04-15T12:41:55;11.80;99.90
45549;DHT22;31270;48.328;10.096;2023-04-15T12:44:22;11.80;99.90
45549;DHT22;31270;48.328;10.096;2023-04-15T12:46:49;11.70;99.90
45549;DHT22;31270;48.328;10.096;2023-04-15T12:49:15;11.50;99.90
45549;DHT22;31270;48.328;10.096;2023-04-15T12:51:43;11.50;99.90
45549;DHT22;31270;48.328;10.096;2023-04-15T12:54:09;11.50;99.90
45549;DHT22;31270;48.328;10.096;2023-04-15T12:56:34;11.50;99.90
45549;DHT22;31270;48.328;10.096;2023-04-15T12:59:00;11.70;99.90
45549;DHT22;31270;48.328;10.096;2023-04-15T13:01:26;11.80;99.90
45549;DHT22;31270;48.328;10.096;2023-04-15T13:03:51;12.00;99.90
45549;DHT22;31270;48.328;10.096;2023-04-15T13:06:17;11.90;99.90
45549;DHT22;31270;48.328;10.096;2023-04-15T13:08:42;11.90;99.90
45549;DHT22;31270;48.328;10.096;2023-04-15T13:11:08;11.90;99.90
45549;DHT22;31270;48.328;10.096;2023-04-15T13:13:34;12.00;99.90
45549;DHT22;31270;48.328;10.096;2023-04-15T13:16:00;12.00;99.90
45549;DHT22;31270;48.328;10.096;2023-04-15T13:18:26;12.10;99.90
45549;DHT22;31270;48.328;10.096;2023-04-15T13:20:53;11.90;99.90
45549;DHT22;31270;48.328;10.096;2023-04-15T13:23:19;12.10;99.90
45549;DHT22;31270;48.328;10.096;2023-04-15T13:25:45;12.10;99.90
45549;DHT22;31270;48.328;10.096;2023-04-15T13:28:11;12.20;99.90
45549;DHT22;31270;48.328;10.096;2023-04-15T13:30:38;12.20;99.90
45549;DHT22;31270;48.328;10.096;2023-04-15T13:33:04;12.10;99.90
45549;DHT22;31270;48.328;10.096;2023-04-15T13:35:31;12.20;99.90
45549;DHT22;31270;48.328;10.096;2023-04-15T13:37:57;12.20;99.90
45549;DHT22;31270;48.328;10.096;2023-04-15T13:40:23;12.20;99.90
45549;DHT22;31270;48.328;10.096;2023-04-15T13:42:50;12.20;99.90
45549;DHT22;31270;48.328;10.096;2023-04-15T13:45:16;12.20;99.90
45549;DHT22;31270;48.328;10.096;2023-04-15T13:47:42;12.10;99.90
45549;DHT22;31270;48.328;10.096;2023-04-15T13:50:08;12.00;99.90
45549;DHT22;31270;48.328;10.096;2023-04-15T13:52:34;11.90;99.90
45549;DHT22;31270;48.328;10.096;2023-04-15T13:55:01;11.70;99.90
45549;DHT22;31270;48.328;10.096;2023-04-15T13:57:26;11.60;99.90
45549;DHT22;31270;48.328;10.096;2023-04-15T13:59:52;11.30;99.90
45549;DHT22;31270;48.328;10.096;2023-04-15T14:02:20;11.10;99.90
45549;DHT22;31270;48.328;10.096;2023-04-15T14:04:47;10.90;99.90
45549;DHT22;31270;48.328;10.096;2023-04-15T14:07:13;10.80;99.90
45549;DHT22;31270;48.328;10.096;2023-04-15T14:09:38;10.50;99.90
45549;DHT22;31270;48.328;10.096;2023-04-15T14:12:04;10.40;99.90
45549;DHT22;31270;48.328;10.096;2023-04-15T14:14:30;10.20;99.90
45549;DHT22;31270;48.328;10.096;2023-04-15T14:16:56;9.90;99.90
45549;DHT22;31270;48.328;10.096;2023-04-15T14:19:23;9.90;99.90
45549;DHT22;31270;48.328;10.096;2023-04-15T14:21:48;9.60;99.90
45549;DHT22;31270;48.328;10.096;2023-04-15T14:24:14;9.60;99.90
45549;DHT22;31270;48.328;10.096;2023-04-15T14:26:39;9.70;99.90
45549;DHT22;31270;48.328;10.096;2023-04-15T14:29:08;9.70;99.90
45549;DHT22;31270;48.328;10.096;2023-04-15T14:31:33;9.60;99.90
45549;DHT22;31270;48.328;10.096;2023-04-15T14:33:59;9.50;99.90
45549;DHT22;31270;48.328;10.096;2023-04-15T14:36:25;9.40;99.90
45549;DHT22;31270;48.328;10.096;2023-04-15T14:38:51;9.30;99.90
45549;DHT22;31270;48.328;10.096;2023-04-15T14:41:17;9.10;99.90
45549;DHT22;31270;48.328;10.096;2023-04-15T14:43:42;9.10;99.90
45549;DHT22;31270;48.328;10.096;2023-04-15T14:46:09;8.90;99.90
45549;DHT22;31270;48.328;10.096;2023-04-15T14:48:35;8.70;99.90
45549;DHT22;31270;48.328;10.096;2023-04-15T14:51:01;8.80;99.90
45549;DHT22;31270;48.328;10.096;2023-04-15T14:53:26;8.70;99.90
45549;DHT22;31270;48.328;10.096;2023-04-15T14:55:52;8.60;99.90
45549;DHT22;31270;48.328;10.096;2023-04-15T14:58:18;8.50;99.90
45549;DHT22;31270;48.328;10.096;2023-04-15T15:00:44;8.50;99.90
45549;DHT22;31270;48.328;10.096;2023-04-15T15:03:11;8.40;99.90
45549;DHT22;31270;48.328;10.096;2023-04-15T15:05:44;8.40;99.90
45549;DHT22;31270;48.328;10.096;2023-04-15T15:08:11;8.40;99.90
45549;DHT22;31270;48.328;10.096;2023-04-15T15:10:38;8.50;99.90
45549;DHT22;31270;48.328;10.096;2023-04-15T15:13:06;8.50;99.90
45549;DHT22;31270;48.328;10.096;2023-04-15T15:15:32;8.50;99.90
45549;DHT22;31270;48.328;10.096;2023-04-15T15:17:58;8.50;99.90
45549;DHT22;31270;48.328;10.096;2023-04-15T15:20:24;8.50;99.90
45549;DHT22;31270;48.328;10.096;2023-04-15T15:22:50;8.50;99.90
45549;DHT22;31270;48.328;10.096;2023-04-15T15:25:16;8.60;99.90
45549;DHT22;31270;48.328;10.096;2023-04-15T15:27:42;8.90;99.90
45549;DHT22;31270;48.328;10.096;2023-04-15T15:30:08;8.70;99.90
45549;DHT22;31270;48.328;10.096;2023-04-15T15:32:34;8.70;99.90
45549;DHT22;31270;48.328;10.096;2023-04-15T15:35:00;8.70;99.90
45549;DHT22;31270;48.328;10.096;2023-04-15T15:37:26;8.70;99.90
45549;DHT22;31270;48.328;10.096;2023-04-15T15:39:52;8.70;99.90
45549;DHT22;31270;48.328;10.096;2023-04-15T15:42:20;8.80;99.90
45549;DHT22;31270;48.328;10.096;2023-04-15T15:44:46;8.80;99.90
45549;DHT22;31270;48.328;10.096;2023-04-15T15:47:14;8.80;99.90
45549;DHT22;31270;48.328;10.096;2023-04-15T15:49:40;8.80;99.90
45549;DHT22;31270;48.328;10.096;2023-04-15T15:52:06;8.80;99.90
45549;DHT22;31270;48.328;10.096;2023-04-15T15:54:31;8.70;99.90
45549;DHT22;31270;48.328;10.096;2023-04-15T15:56:57;8.60;99.90